NCAR-RAP Real-Time Weather Data

Output produced by METARs form (16 August 2018  19:23 UTC)
found at http://weather.rap.ucar.edu/surface/
 
RJSY 161200Z 30012KT 260V320 9999 FEW020 BKN030 22/17 Q1005
RJSY 161100Z 27014KT 9999 FEW020 BKN030 23/18 Q1004
RJSY 161000Z 28014G24KT 9999 FEW020 BKN030 24/19 Q1003
RJSY 160900Z 28013KT 9999 FEW020 SCT030 BKN040 24/20 Q1003
RJSY 160800Z 29012KT 9999 FEW008 SCT015 BKN025 23/21 Q1003
RJSY 160715Z 29015KT 8000 -SHRA FEW005 SCT008 BKN015 23/21 Q1002 RMK 1ST005 4ST008 6CU015 A2960 P/RR
RJSY 160700Z 24019KT 210V270 1000 R09/0350VP1800D +SHRA BR FEW002 SCT005 BKN008 22/21 Q1002
RJSY 160600Z 23021G31KT 5000 -SHRA BR FEW005 SCT010 BKN020 23/20 Q1001
RJSY 160500Z 21009KT 190V250 9999 FEW005 SCT030 BKN150 24/20 Q1002
RJSY 160400Z 13005KT 9999 -SHRA FEW005 SCT015 BKN030 22/21 Q1002
RJSY 160300Z 15006KT 120V190 7000 SHRA FEW005 SCT010 BKN020 22/21 Q1003
RJSY 160200Z 12005KT 4500 SHRA BR FEW002 SCT005 BKN010 21/20 Q1002
RJSY 160121Z 12006KT 090V170 3500 R09/0750VP1800U SHRA BR FEW001 SCT005 BKN010 21/20 Q1003 RMK 1ST001 3ST005 6ST010 A2962
RJSY 160112Z 11009KT 1500 R09/0750VP1800D +SHRA BR FEW001 SCT004 BKN010 21/20 Q1003 RMK 1ST001 3ST004 6ST010 A2963 P/FR RI++
RJSY 160100Z 08010KT 3500 R09/1300VP1800U SHRA PRFG BR FEW001 SCT005 BKN010 21/21 Q1003
RJSY 160038Z 35003KT 300V110 1000 R09/0450V1300D +SHRA BR FEW001 SCT003 BKN007 22/21 Q1005 RMK 1ST001 3ST003 6ST007 A2968 RI++
RJSY 160018Z 11007KT 1500 R09/1100V1700N +SHRA BR FEW002 SCT004 BKN010 22/21 Q1004 RMK 1ST002 4ST004 6ST010 A2965 RI++
RJSY 160010Z 12006KT 100V170 2000 R09/1200VP1800D +SHRA BR FEW002 SCT004 BKN010 22/21 Q1004 RMK 1ST002 3ST004 6ST010 A2966 RI++
RJSY 160000Z 13007KT 100V170 4500 SHRA BR FEW002 SCT005 BKN010 22/21 Q1004
RJSY 152337Z 12007KT 080V150 3000 SHRA BR FEW001 SCT003 BKN005 22/21 Q1004 RMK 1ST001 3ST003 6ST005 A2966
RJSY 152326Z 14007KT 100V180 5000 -SHRA BR FEW001 BKN005 BKN030 22/21 Q1004 RMK 1ST001 5ST005 7CU030 A2967
RJSY 152300Z 11004KT 3000 R09/P1800N SHRA PRFG BR FEW001 SCT005 BKN015 22/21 Q1004
RJSY 152236Z 00000KT 4000 R09/1800D SHRA BR FEW003 SCT010 BKN020 22/20 Q1005 RMK 1ST003 3ST010 6CU020 A2969
RJSY 152200Z VRB01KT 7000 -SHRA FEW003 SCT006 BKN015 21/20 Q1005
RJSY 151200Z VRB02KT 9999 -SHRA FEW015 SCT025 BKN070 25/24 Q1009
RJSY 151100Z 28005KT 9999 -SHRA FEW015 SCT030 BKN070 26/24 Q1010
RJSY 151000Z 10005KT 9999 FEW030 SCT050 BKN070 29/23 Q1010
RJSY 150900Z 11003KT 9999 FEW030 BKN050 BKN/// 30/23 Q1009
RJSY 150800Z VRB02KT 9999 FEW030 SCT070 BKN/// 30/23 Q1010
RJSY 150700Z 27005KT 9999 FEW030 SCT070 BKN/// 30/24 Q1010
RJSY 150600Z 27007KT 9999 FEW030 SCT090 BKN/// 31/24 Q1010
RJSY 150500Z 25008KT 9999 FEW030 BKN/// 30/23 Q1011
RJSY 150437Z 26008KT 230V290 9999 FEW030 BKN/// 32/24 Q1011 RMK 1CU030 A2987
RJSY 150400Z 26008KT 9999 FEW030 BKN/// 30/24 Q1011
RJSY 150300Z 26007KT 230V300 9999 FEW030 BKN/// 31/23 Q1012
RJSY 150200Z 29005KT 260V350 9999 FEW030 BKN/// 31/22 Q1012
RJSY 150100Z 26005KT 220V310 9999 FEW030 BKN/// 31/22 Q1013
RJSY 150000Z 24003KT 160V310 9999 FEW030 BKN/// 31/23 Q1013
RJSY 142300Z 08003KT 040V150 9999 FEW030 BKN/// 29/23 Q1013
RJSY 142200Z 13004KT 100V160 9999 FEW030 BKN/// 27/23 Q1013
RJSY 141200Z 00000KT 9999 FEW020 SCT/// 26/24 Q1013
RJSY 141100Z 14003KT 9999 FEW020 SCT/// 26/24 Q1013
RJSY 141000Z VRB01KT 9999 FEW020 SCT/// 27/24 Q1012
RJSY 140900Z 31004KT 270V360 9999 FEW010 SCT070 BKN/// 28/24 Q1012
RJSY 140800Z 31004KT 260V030 9999 FEW015 BKN/// 28/24 Q1012